createdAt,value
2023-01-05T00:00:25.008Z,99629.60
2023-01-05T00:04:13.180Z,99641.95
2023-01-05T00:07:43.441Z,99622.60
2023-01-05T00:11:30.002Z,99603.09
2023-01-05T00:15:31.880Z,99611.09
2023-01-05T00:19:16.372Z,99609.69
2023-01-05T00:22:47.456Z,99593.66
2023-01-05T00:26:15.595Z,99586.52
2023-01-05T00:29:42.608Z,99594.70
2023-01-05T00:33:12.291Z,99580.95
2023-01-05T00:36:40.406Z,99576.95
2023-01-05T00:40:10.436Z,99571.19
2023-01-05T00:43:37.741Z,99567.84
2023-01-05T00:47:04.839Z,99564.33
2023-01-05T00:50:31.761Z,99565.70
2023-01-05T00:54:01.130Z,99562.02
2023-01-05T00:57:28.521Z,99552.29
2023-01-05T01:00:56.218Z,99556.65
2023-01-05T01:04:23.591Z,99567.63
2023-01-05T01:07:50.439Z,99560.34
2023-01-05T01:11:17.820Z,99563.14
2023-01-05T01:14:47.354Z,99562.45
2023-01-05T01:18:18.673Z,99561.09
2023-01-05T01:21:46.920Z,99555.88
2023-01-05T01:25:14.003Z,99567.39
2023-01-05T01:28:41.082Z,99583.63
2023-01-05T01:32:08.832Z,99592.17
2023-01-05T01:35:38.091Z,99589.92
2023-01-05T01:39:05.717Z,99589.38
2023-01-05T01:42:35.270Z,99589.70
2023-01-05T01:46:02.232Z,99590.88
2023-01-05T01:49:29.151Z,99584.23
2023-01-05T01:53:02.097Z,99583.84
2023-01-05T01:56:35.967Z,99578.95
2023-01-05T02:00:08.030Z,99574.73
2023-01-05T02:03:45.142Z,99574.16
2023-01-05T02:07:17.504Z,99576.55
2023-01-05T02:11:03.750Z,99574.24
2023-01-05T02:14:37.238Z,99580.26
2023-01-05T02:18:20.248Z,99573.92
2023-01-05T02:22:00.738Z,99574.75
2023-01-05T02:25:48.964Z,99578.02
2023-01-05T02:29:43.365Z,99568.63
2023-01-05T02:33:26.465Z,99567.95
2023-01-05T02:37:03.231Z,99567.27
2023-01-05T02:40:35.562Z,99568.83
2023-01-05T02:44:05.061Z,99564.14
2023-01-05T02:47:45.275Z,99567.30
2023-01-05T02:51:17.450Z,99568.67
2023-01-05T02:54:49.822Z,99564.49
2023-01-05T02:58:23.716Z,99564.67
2023-01-05T03:01:55.549Z,99558.09
2023-01-05T03:05:27.654Z,99559.33
2023-01-05T03:08:58.460Z,99563.50
2023-01-05T03:12:52.583Z,99564.38
2023-01-05T03:16:27.525Z,99562.81
2023-01-05T03:19:57.358Z,99558.09
2023-01-05T03:23:42.764Z,99561.54
2023-01-05T03:27:28.290Z,99558.22
2023-01-05T03:31:19.435Z,99556.80
2023-01-05T03:35:10.454Z,99553.36
2023-01-05T03:38:46.794Z,99546.27
2023-01-05T03:42:15.741Z,99538.96
2023-01-05T03:45:46.883Z,99543.52
2023-01-05T03:49:21.046Z,99538.33
2023-01-05T03:52:48.771Z,99537.29
2023-01-05T03:56:15.755Z,99536.08
2023-01-05T03:59:43.049Z,99540.27
2023-01-05T04:03:10.687Z,99541.30
2023-01-05T04:06:39.313Z,99540.95
2023-01-05T04:10:07.614Z,99532.27
2023-01-05T04:13:34.708Z,99531.23
2023-01-05T04:17:02.486Z,99533.50
2023-01-05T04:20:29.471Z,99529.02
2023-01-05T04:23:56.425Z,99533.91
2023-01-05T04:27:23.678Z,99533.23
2023-01-05T04:30:54.637Z,99538.13
2023-01-05T04:34:23.774Z,99538.49
2023-01-05T04:37:51.843Z,99542.51
2023-01-05T04:41:19.170Z,99546.69
2023-01-05T04:44:48.343Z,99545.47
2023-01-05T04:48:15.706Z,99540.25
2023-01-05T04:51:43.779Z,99539.91
2023-01-05T04:55:11.800Z,99540.08
2023-01-05T04:58:39.296Z,99541.81
2023-01-05T05:02:06.593Z,99540.95
2023-01-05T05:05:34.015Z,99546.20
2023-01-05T05:09:01.385Z,99546.87
2023-01-05T05:12:29.420Z,99548.58
2023-01-05T05:15:56.403Z,99541.59
2023-01-05T05:19:23.539Z,99545.38
2023-01-05T05:22:51.516Z,99552.83
2023-01-05T05:26:19.118Z,99555.42
2023-01-05T05:29:47.007Z,99553.49
2023-01-05T05:33:13.987Z,99561.88
2023-01-05T05:36:40.893Z,99562.25
2023-01-05T05:40:10.127Z,99572.37
2023-01-05T05:43:37.597Z,99576.74
2023-01-05T05:47:05.028Z,99582.85
2023-01-05T05:50:31.934Z,99585.64
2023-01-05T05:54:05.848Z,99591.52
2023-01-05T05:57:32.847Z,99589.73
2023-01-05T06:01:02.859Z,99590.52
2023-01-05T06:04:30.380Z,99594.60
2023-01-05T06:07:57.391Z,99587.77
2023-01-05T06:11:24.362Z,99601.48
2023-01-05T06:14:51.588Z,99598.88
2023-01-05T06:18:22.129Z,99601.67
2023-01-05T06:21:49.022Z,99603.44
2023-01-05T06:25:16.105Z,99605.20
2023-01-05T06:28:43.201Z,99606.95
2023-01-05T06:32:10.544Z,99610.96
2023-01-05T06:35:37.447Z,99613.55
2023-01-05T06:39:04.551Z,99612.98
2023-01-05T06:42:32.292Z,99610.00
2023-01-05T06:46:00.711Z,99620.75
2023-01-05T06:49:28.123Z,99627.36
2023-01-05T06:52:54.957Z,99623.34
2023-01-05T06:56:21.811Z,99626.48
2023-01-05T06:59:49.428Z,99625.24
2023-01-05T07:03:16.961Z,99636.16
2023-01-05T07:06:44.503Z,99639.44
2023-01-05T07:10:12.601Z,99639.41
2023-01-05T07:13:39.601Z,99641.36
2023-01-05T07:17:06.553Z,99650.27
2023-01-05T07:20:36.695Z,99651.17
2023-01-05T07:24:04.533Z,99654.67
2023-01-05T07:27:31.905Z,99661.83
2023-01-05T07:30:59.267Z,99667.26
2023-01-05T07:34:26.615Z,99659.09
2023-01-05T07:37:53.624Z,99656.83
2023-01-05T07:41:22.776Z,99655.91
2023-01-05T07:44:49.640Z,99660.93
2023-01-05T07:48:23.413Z,99669.42
2023-01-05T07:51:50.614Z,99672.90
2023-01-05T07:55:17.774Z,99674.45
2023-01-05T07:58:47.871Z,99682.23
2023-01-05T08:02:15.182Z,99691.73
2023-01-05T08:05:42.635Z,99692.94
2023-01-05T08:09:27.185Z,99698.01
2023-01-05T08:13:11.924Z,99701.04
2023-01-05T08:16:38.842Z,99711.94
2023-01-05T08:20:06.624Z,99704.59
2023-01-05T08:23:34.731Z,99706.98
2023-01-05T08:27:01.808Z,99706.59
2023-01-05T08:30:28.960Z,99716.51
2023-01-05T08:34:00.150Z,99718.02
2023-01-05T08:37:27.447Z,99721.11
2023-01-05T08:40:55.075Z,99727.72
2023-01-05T08:44:22.846Z,99733.05
2023-01-05T08:47:49.709Z,99732.13
2023-01-05T08:51:19.366Z,99737.30
2023-01-05T08:54:46.611Z,99742.32
2023-01-05T08:58:13.839Z,99745.09
2023-01-05T09:01:41.238Z,99744.93
2023-01-05T09:05:11.418Z,99747.73
2023-01-05T09:08:37.107Z,99754.50
2023-01-05T09:12:09.287Z,99757.73
2023-01-05T09:15:37.496Z,99762.88
2023-01-05T09:19:04.536Z,99764.75
2023-01-05T09:22:31.467Z,99767.46
2023-01-05T09:26:00.543Z,99771.35
2023-01-05T09:29:28.691Z,99776.29
2023-01-05T09:32:55.771Z,99776.40
2023-01-05T09:36:25.719Z,99779.70
2023-01-05T09:39:53.230Z,99781.18
2023-01-05T09:43:27.031Z,99784.89
2023-01-05T09:46:55.366Z,99789.98
2023-01-05T09:50:25.354Z,99788.13
2023-01-05T09:53:50.645Z,99791.86
2023-01-05T09:57:21.718Z,99792.81
2023-01-05T10:01:03.397Z,99782.30
2023-01-05T10:04:33.187Z,99784.64
2023-01-05T10:08:05.222Z,99789.17
2023-01-05T10:11:58.294Z,99794.88
2023-01-05T10:15:25.963Z,99796.21
2023-01-05T10:18:54.492Z,99795.87
2023-01-05T10:22:38.837Z,99796.46
2023-01-05T10:26:18.174Z,99800.63
2023-01-05T10:29:47.613Z,99793.58
2023-01-05T10:33:32.098Z,99793.45
2023-01-05T10:37:22.733Z,99793.50
2023-01-05T10:41:06.018Z,99795.23
2023-01-05T10:44:56.868Z,99802.52
2023-01-05T10:48:30.243Z,99796.14
2023-01-05T10:52:00.214Z,99790.45
2023-01-05T10:55:29.547Z,99781.44
2023-01-05T10:59:10.800Z,99779.58
2023-01-05T11:02:41.133Z,99779.14
2023-01-05T11:06:10.280Z,99775.60
2023-01-05T11:09:42.976Z,99764.84
2023-01-05T11:13:30.693Z,99759.45
2023-01-05T11:17:04.766Z,99767.06
2023-01-05T11:20:38.297Z,99769.27
2023-01-05T11:24:26.469Z,99780.71
2023-01-05T11:28:10.291Z,99768.11
2023-01-05T11:31:43.083Z,99773.95
2023-01-05T11:35:22.628Z,99774.41
2023-01-05T11:38:55.759Z,99779.21
2023-01-05T11:42:31.868Z,99765.77
2023-01-05T11:46:03.449Z,99773.26
2023-01-05T11:49:30.936Z,99755.35
2023-01-05T11:53:00.130Z,99768.55
2023-01-05T11:56:27.873Z,99775.86
2023-01-05T11:59:58.543Z,99770.77
2023-01-05T12:03:39.859Z,99777.90
2023-01-05T12:07:22.553Z,99773.88
2023-01-05T12:11:03.839Z,99775.08
2023-01-05T12:14:50.104Z,99779.36
2023-01-05T12:18:30.966Z,99781.41
2023-01-05T12:22:20.301Z,99794.24
2023-01-05T12:26:01.936Z,99795.63
2023-01-05T12:31:06.828Z,99792.79
2023-01-05T12:34:02.298Z,99783.09
2023-01-05T12:37:44.349Z,99795.33
2023-01-05T12:41:31.303Z,99800.12
2023-01-05T12:45:16.071Z,99808.55
2023-01-05T12:48:48.225Z,99813.81
2023-01-05T12:52:21.585Z,99814.08
2023-01-05T12:55:53.759Z,99836.27
2023-01-05T12:59:26.372Z,99840.23
2023-01-05T13:02:59.733Z,99849.20
2023-01-05T13:06:28.576Z,99860.35
2023-01-05T13:10:03.285Z,99874.81
2023-01-05T13:13:35.563Z,99880.23
2023-01-05T13:17:05.798Z,99890.00
2023-01-05T13:20:40.927Z,99894.59
2023-01-05T13:24:14.398Z,99901.21
2023-01-05T13:27:41.351Z,99896.94
2023-01-05T13:31:26.760Z,99901.50
2023-01-05T13:35:22.462Z,99912.45
2023-01-05T13:39:28.608Z,99922.73
2023-01-05T13:43:13.620Z,99928.32
2023-01-05T13:47:00.900Z,99936.02
2023-01-05T13:50:58.751Z,99953.63
2023-01-05T13:54:49.177Z,99957.93
2023-01-05T13:58:41.473Z,99979.77
2023-01-05T14:02:28.588Z,99998.23
2023-01-05T14:05:58.467Z,99999.75
2023-01-05T14:09:30.412Z,100020.69
2023-01-05T14:12:58.303Z,100033.11
2023-01-05T14:16:55.807Z,100050.19
2023-01-05T14:20:42.080Z,100081.29
2023-01-05T14:24:31.516Z,100090.80
2023-01-05T14:28:20.767Z,100098.48
2023-01-05T14:31:53.774Z,100115.51
2023-01-05T14:35:29.967Z,100131.52
2023-01-05T14:38:58.055Z,100140.52
2023-01-05T14:42:32.637Z,100161.05
2023-01-05T14:46:07.053Z,100161.79
2023-01-05T14:49:38.447Z,100166.09
2023-01-05T14:53:13.887Z,100166.39
2023-01-05T14:56:41.196Z,100179.42
2023-01-05T15:00:16.800Z,100177.36
2023-01-05T15:03:49.871Z,100196.34
2023-01-05T15:11:32.561Z,100226.90
2023-01-05T15:15:40.915Z,100235.45
2023-01-05T15:19:43.148Z,100256.64
2023-01-05T15:23:26.483Z,100266.65
2023-01-05T15:27:11.386Z,100272.25
2023-01-05T15:31:11.449Z,100288.79
2023-01-05T15:34:43.172Z,100294.84
2023-01-05T15:38:31.108Z,100300.98
2023-01-05T15:42:02.747Z,100305.84
2023-01-05T15:45:32.356Z,100307.38
2023-01-05T15:49:02.360Z,100319.96
2023-01-05T15:52:35.367Z,100330.66
2023-01-05T15:56:03.314Z,100343.27
2023-01-05T15:59:39.528Z,100354.73
2023-01-05T16:03:23.134Z,100357.64
2023-01-05T16:07:00.509Z,100375.16
2023-01-05T16:10:32.436Z,100379.40
2023-01-05T16:14:03.926Z,100390.23
2023-01-05T16:17:33.279Z,100397.36
2023-01-05T16:21:07.240Z,100412.00
2023-01-05T16:24:43.322Z,100418.58
2023-01-05T16:28:21.271Z,100427.23
2023-01-05T16:31:55.794Z,100431.70
2023-01-05T16:35:35.400Z,100443.89
2023-01-05T16:39:25.075Z,100451.45
2023-01-05T16:42:52.360Z,100450.81
2023-01-05T16:46:35.447Z,100466.56
2023-01-05T16:50:10.231Z,100471.63
2023-01-05T16:53:42.186Z,100480.96
2023-01-05T16:57:40.927Z,100486.20
2023-01-05T17:01:28.064Z,100486.25
2023-01-05T17:04:55.617Z,100490.91
2023-01-05T17:08:30.465Z,100498.67
2023-01-05T17:12:00.599Z,100501.74
2023-01-05T17:15:30.741Z,100508.27
2023-01-05T17:19:00.872Z,100512.26
2023-01-05T17:22:30.840Z,100520.03
2023-01-05T17:26:01.565Z,100524.54
2023-01-05T17:29:30.680Z,100530.43
2023-01-05T17:33:03.007Z,100531.32
2023-01-05T17:36:34.009Z,100533.23
2023-01-05T17:40:01.604Z,100539.46
2023-01-05T17:43:29.204Z,100552.80
2023-01-05T17:46:56.515Z,100559.40
2023-01-05T17:50:26.850Z,100566.70
2023-01-05T17:53:54.327Z,100572.99
2023-01-05T17:57:22.197Z,100573.73
2023-01-05T18:00:50.994Z,100578.06
2023-01-05T18:04:20.164Z,100585.95
2023-01-05T18:07:49.623Z,100598.81
2023-01-05T18:11:17.756Z,100605.98
2023-01-05T18:14:45.989Z,100615.08
2023-01-05T18:18:14.864Z,100616.29
2023-01-05T18:25:16.503Z,100624.05
2023-01-05T18:28:44.254Z,100629.68
2023-01-05T18:32:12.690Z,100634.64
2023-01-05T18:35:44.017Z,100636.85
2023-01-05T18:39:11.987Z,100640.26
2023-01-05T18:42:40.931Z,100652.83
2023-01-05T18:46:09.405Z,100654.38
2023-01-05T18:49:37.779Z,100666.23
2023-01-05T18:53:05.939Z,100677.83
2023-01-05T18:56:34.837Z,100683.52
2023-01-05T19:00:03.942Z,100687.50
2023-01-05T19:03:31.758Z,100692.71
2023-01-05T19:06:59.420Z,100692.41
2023-01-05T19:10:27.186Z,100696.63
2023-01-05T19:13:57.941Z,100702.70
2023-01-05T19:17:25.646Z,100708.91
2023-01-05T19:21:00.317Z,100709.31
2023-01-05T19:24:29.152Z,100723.87
2023-01-05T19:27:56.752Z,100728.71
2023-01-05T19:31:25.008Z,100733.34
2023-01-05T19:34:54.055Z,100736.77
2023-01-05T19:38:23.247Z,100736.59
2023-01-05T19:41:52.772Z,100748.86
2023-01-05T19:45:19.856Z,100749.71
2023-01-05T19:48:49.324Z,100757.84
2023-01-05T19:52:17.749Z,100766.98
2023-01-05T19:55:46.936Z,100774.53
2023-01-05T19:59:21.566Z,100780.75
2023-01-05T20:02:50.556Z,100788.04
2023-01-05T20:06:22.194Z,100787.15
2023-01-05T20:09:52.931Z,100804.95
2023-01-05T20:13:21.089Z,100814.47
2023-01-05T20:16:51.874Z,100814.95
2023-01-05T20:20:20.382Z,100813.71
2023-01-05T20:23:48.168Z,100822.18
2023-01-05T20:27:18.883Z,100826.13
2023-01-05T20:30:48.418Z,100826.78
2023-01-05T20:34:21.221Z,100829.55
2023-01-05T20:37:50.775Z,100841.47
2023-01-05T20:41:23.979Z,100844.57
2023-01-05T20:44:53.396Z,100859.06
2023-01-05T20:48:22.593Z,100863.70
2023-01-05T20:51:52.135Z,100869.53
2023-01-05T20:55:22.259Z,100872.95
2023-01-05T20:58:52.396Z,100886.11
2023-01-05T21:02:24.642Z,100895.60
2023-01-05T21:05:53.724Z,100901.80
2023-01-05T21:09:23.507Z,100906.31
2023-01-05T21:12:49.880Z,100916.50
2023-01-05T21:16:21.328Z,100916.70
2023-01-05T21:19:50.565Z,100921.67
2023-01-05T21:23:19.367Z,100933.06
2023-01-05T21:26:48.225Z,100938.23
2023-01-05T21:30:17.491Z,100947.56
2023-01-05T21:33:46.886Z,100952.59
2023-01-05T21:37:15.327Z,100958.91
2023-01-05T21:40:43.332Z,100965.55
2023-01-05T21:44:13.669Z,100973.98
2023-01-05T21:47:41.416Z,100978.41
2023-01-05T21:51:27.972Z,100973.69
2023-01-05T21:55:27.372Z,100976.91
2023-01-05T21:58:55.139Z,100978.92
2023-01-05T22:02:22.317Z,100981.62
2023-01-05T22:05:51.849Z,100986.28
2023-01-05T22:09:18.811Z,100984.02
2023-01-05T22:12:45.848Z,100990.23
2023-01-05T22:16:13.179Z,100997.27
2023-01-05T22:19:40.137Z,101000.85
2023-01-05T22:23:07.433Z,101009.08
2023-01-05T22:26:34.295Z,101010.11
2023-01-05T22:30:01.153Z,101019.92
2023-01-05T22:33:28.265Z,101021.65
2023-01-05T22:36:55.321Z,101019.88
2023-01-05T22:40:22.303Z,101021.45
2023-01-05T22:43:50.218Z,101032.48
2023-01-05T22:47:17.214Z,101034.51
2023-01-05T22:50:44.256Z,101043.78
2023-01-05T22:54:11.445Z,101045.84
2023-01-05T22:57:38.312Z,101044.77
2023-01-05T23:01:11.716Z,101048.69
2023-01-05T23:04:38.633Z,101049.63
2023-01-05T23:08:06.003Z,101051.67
2023-01-05T23:11:35.135Z,101060.95
2023-01-05T23:15:02.047Z,101064.85
2023-01-05T23:18:29.556Z,101067.09
2023-01-05T23:21:56.520Z,101073.80
2023-01-05T23:25:23.476Z,101082.41
2023-01-05T23:28:51.125Z,101091.19
2023-01-05T23:32:18.181Z,101091.86
2023-01-05T23:35:46.889Z,101097.32
2023-01-05T23:39:14.288Z,101093.99
2023-01-05T23:42:47.478Z,101099.64
2023-01-05T23:46:17.669Z,101107.17
2023-01-05T23:49:44.957Z,101111.25
2023-01-05T23:53:12.782Z,101109.86
2023-01-05T23:56:39.920Z,101109.46
